仁川, South Korea

2016年2月08日 02時05分 (GMT +0900)
Incheon International | | Change Station
CLOSE
Current Station
機場
Location: Incheon,
海拔: 23 ft
附近的氣象站

海拔 23 ft 37.47 °N, 126.45 °E | Updated 5 minutes ago

Clear
晴天
25 °F
感覺像 19 °F
5
風 變化 風 來自 東南偏南

今日
高 -- | 低 -- °F
--% 降水機率
昨天
高 -- | 低 -- °F
Precip. -- 英寸
氣壓 30.12 英寸
能見度 -9999.0 英里
多雲
風寒指數 19 °F
露點 19 °F
濕度 80%
降雨量 0.00 英寸
積雪深度 不適用。
7:31 AM 6:04 PM
殘月, 1% visible
METAR RKSI 071700Z 15004KT CAVOK M04/M07 Q1020 NOSIG
氣壓 30.12 英寸
能見度 -9999.0 英里
多雲
風寒指數 19 °F
露點 19 °F
濕度 80%
降雨量 0.00 英寸
積雪深度 不適用。
7:31 AM 6:04 PM
殘月, 1% visible
METAR RKSI 071700Z 15004KT CAVOK M04/M07 Q1020 NOSIG

10-Day Weather Forecast

No radar image for this location.
×

Almanac

天文

Feb. 08, 2016 昇起 降落
實際時間
民用曙暮光
航海曙暮光
天文學微明
月亮
可見光的長度
白晝時間
Tomorrow will be .
, % of the Moon is Illuminated

今天之最

國家高溫 國家低溫

Community

WunderPhotos

Upload Photos

1,891,235 照片已上傳!

WunderBlog® & News

Nearby

空氣質素

  空氣質素 空氣質素指數 污染物
Not available.

積雪量

Station 深度 海拔

地震活動

城市 距離 時間和日期
顯示的最小幅度是2.5。

沿海水溫

地點 溫度

Stations

附近的氣象站

氣象站位置 溫度 風寒指數 露點 濕度 Precip. 海拔 最近更新時間 類型